sensor_id;sensor_type;location;lat;lon;timestamp;temperature;humidity
42489;DHT22;28118;52.388;9.452;2022-11-24T00:01:26;6.80;99.90
42489;DHT22;28118;52.388;9.452;2022-11-24T00:04:00;6.80;99.90
42489;DHT22;28118;52.388;9.452;2022-11-24T00:06:28;6.80;99.90
42489;DHT22;28118;52.388;9.452;2022-11-24T00:08:56;6.80;99.90
42489;DHT22;28118;52.388;9.452;2022-11-24T00:11:26;6.70;99.90
42489;DHT22;28118;52.388;9.452;2022-11-24T00:13:53;6.70;99.90
42489;DHT22;28118;52.388;9.452;2022-11-24T00:16:38;6.70;99.90
42489;DHT22;28118;52.388;9.452;2022-11-24T00:19:07;6.70;99.90
42489;DHT22;28118;52.388;9.452;2022-11-24T00:21:36;6.70;99.90
42489;DHT22;28118;52.388;9.452;2022-11-24T00:24:03;6.70;99.90
42489;DHT22;28118;52.388;9.452;2022-11-24T00:26:32;6.70;99.90
42489;DHT22;28118;52.388;9.452;2022-11-24T00:29:02;6.70;99.90
42489;DHT22;28118;52.388;9.452;2022-11-24T00:31:31;6.60;99.90
42489;DHT22;28118;52.388;9.452;2022-11-24T00:34:01;6.60;99.90
42489;DHT22;28118;52.388;9.452;2022-11-24T00:36:30;6.70;99.90
42489;DHT22;28118;52.388;9.452;2022-11-24T00:39:00;6.70;99.90
42489;DHT22;28118;52.388;9.452;2022-11-24T00:41:28;6.70;99.90
42489;DHT22;28118;52.388;9.452;2022-11-24T00:43:55;6.70;99.90
42489;DHT22;28118;52.388;9.452;2022-11-24T00:46:23;6.70;99.90
42489;DHT22;28118;52.388;9.452;2022-11-24T00:48:51;6.80;99.90
42489;DHT22;28118;52.388;9.452;2022-11-24T00:51:19;6.80;99.90
42489;DHT22;28118;52.388;9.452;2022-11-24T00:53:46;6.90;99.90
42489;DHT22;28118;52.388;9.452;2022-11-24T00:56:13;7.00;99.90
42489;DHT22;28118;52.388;9.452;2022-11-24T00:58:40;7.00;99.90
42489;DHT22;28118;52.388;9.452;2022-11-24T01:01:14;7.00;99.90
42489;DHT22;28118;52.388;9.452;2022-11-24T01:03:41;7.00;99.90
42489;DHT22;28118;52.388;9.452;2022-11-24T01:06:17;7.00;99.90
42489;DHT22;28118;52.388;9.452;2022-11-24T01:08:45;6.90;99.90
42489;DHT22;28118;52.388;9.452;2022-11-24T01:11:15;6.90;99.90
42489;DHT22;28118;52.388;9.452;2022-11-24T01:13:45;7.00;99.90
42489;DHT22;28118;52.388;9.452;2022-11-24T01:16:25;7.00;99.90
42489;DHT22;28118;52.388;9.452;2022-11-24T01:18:52;6.90;99.90
42489;DHT22;28118;52.388;9.452;2022-11-24T01:21:20;6.80;99.90
42489;DHT22;28118;52.388;9.452;2022-11-24T01:23:47;6.70;99.90
42489;DHT22;28118;52.388;9.452;2022-11-24T01:26:16;6.60;99.90
42489;DHT22;28118;52.388;9.452;2022-11-24T01:28:43;6.50;99.90
42489;DHT22;28118;52.388;9.452;2022-11-24T01:31:34;6.50;99.90
42489;DHT22;28118;52.388;9.452;2022-11-24T01:34:02;6.50;99.90
42489;DHT22;28118;52.388;9.452;2022-11-24T01:36:29;6.40;99.90
42489;DHT22;28118;52.388;9.452;2022-11-24T01:38:56;6.50;99.90
42489;DHT22;28118;52.388;9.452;2022-11-24T01:41:24;6.60;99.90
42489;DHT22;28118;52.388;9.452;2022-11-24T01:43:52;6.60;99.90
42489;DHT22;28118;52.388;9.452;2022-11-24T01:51:38;6.70;99.90
42489;DHT22;28118;52.388;9.452;2022-11-24T01:54:10;6.70;99.90
42489;DHT22;28118;52.388;9.452;2022-11-24T01:56:40;6.80;99.90
42489;DHT22;28118;52.388;9.452;2022-11-24T01:59:10;6.90;99.90
42489;DHT22;28118;52.388;9.452;2022-11-24T02:01:38;7.00;99.90
42489;DHT22;28118;52.388;9.452;2022-11-24T02:04:11;7.00;99.90
42489;DHT22;28118;52.388;9.452;2022-11-24T02:06:41;7.10;99.90
42489;DHT22;28118;52.388;9.452;2022-11-24T02:09:20;7.20;99.90
42489;DHT22;28118;52.388;9.452;2022-11-24T02:11:48;7.30;99.90
42489;DHT22;28118;52.388;9.452;2022-11-24T02:14:17;7.40;99.90
42489;DHT22;28118;52.388;9.452;2022-11-24T02:16:48;7.50;99.90
42489;DHT22;28118;52.388;9.452;2022-11-24T02:21:48;7.70;99.90
42489;DHT22;28118;52.388;9.452;2022-11-24T02:24:24;7.70;99.90
42489;DHT22;28118;52.388;9.452;2022-11-24T02:26:52;7.80;99.90
42489;DHT22;28118;52.388;9.452;2022-11-24T02:29:19;7.90;99.90
42489;DHT22;28118;52.388;9.452;2022-11-24T02:31:53;8.00;99.90
42489;DHT22;28118;52.388;9.452;2022-11-24T02:34:21;8.00;99.90
42489;DHT22;28118;52.388;9.452;2022-11-24T02:36:48;8.00;99.90
42489;DHT22;28118;52.388;9.452;2022-11-24T02:39:15;8.00;99.90
42489;DHT22;28118;52.388;9.452;2022-11-24T02:41:45;8.00;99.90
42489;DHT22;28118;52.388;9.452;2022-11-24T02:44:16;8.00;99.90
42489;DHT22;28118;52.388;9.452;2022-11-24T02:46:44;8.00;99.90
42489;DHT22;28118;52.388;9.452;2022-11-24T02:49:11;7.90;99.90
42489;DHT22;28118;52.388;9.452;2022-11-24T02:51:38;7.90;99.90
42489;DHT22;28118;52.388;9.452;2022-11-24T02:54:05;7.90;99.90
42489;DHT22;28118;52.388;9.452;2022-11-24T02:56:31;8.00;99.90
42489;DHT22;28118;52.388;9.452;2022-11-24T02:58:58;8.00;99.90
42489;DHT22;28118;52.388;9.452;2022-11-24T03:01:25;8.00;99.90
42489;DHT22;28118;52.388;9.452;2022-11-24T03:03:52;8.10;99.90
42489;DHT22;28118;52.388;9.452;2022-11-24T03:06:18;8.10;99.90
42489;DHT22;28118;52.388;9.452;2022-11-24T03:08:45;8.10;99.90
42489;DHT22;28118;52.388;9.452;2022-11-24T03:11:12;8.20;99.90
42489;DHT22;28118;52.388;9.452;2022-11-24T03:13:38;8.20;99.90
42489;DHT22;28118;52.388;9.452;2022-11-24T03:16:07;8.20;99.90
42489;DHT22;28118;52.388;9.452;2022-11-24T03:18:35;8.20;99.90
42489;DHT22;28118;52.388;9.452;2022-11-24T03:21:01;8.30;99.90
42489;DHT22;28118;52.388;9.452;2022-11-24T03:23:28;8.30;99.90
42489;DHT22;28118;52.388;9.452;2022-11-24T03:26:06;8.30;99.90
42489;DHT22;28118;52.388;9.452;2022-11-24T03:28:33;8.40;99.90
42489;DHT22;28118;52.388;9.452;2022-11-24T03:31:00;8.30;99.90
42489;DHT22;28118;52.388;9.452;2022-11-24T03:33:28;8.30;99.90
42489;DHT22;28118;52.388;9.452;2022-11-24T03:36:19;8.30;99.90
42489;DHT22;28118;52.388;9.452;2022-11-24T03:38:46;8.20;99.90
42489;DHT22;28118;52.388;9.452;2022-11-24T03:41:12;8.30;99.90
42489;DHT22;28118;52.388;9.452;2022-11-24T03:43:39;8.30;99.90
42489;DHT22;28118;52.388;9.452;2022-11-24T03:46:10;8.30;99.90
42489;DHT22;28118;52.388;9.452;2022-11-24T03:48:38;8.30;99.90
42489;DHT22;28118;52.388;9.452;2022-11-24T03:51:05;8.30;99.90
42489;DHT22;28118;52.388;9.452;2022-11-24T03:53:32;8.30;99.90
42489;DHT22;28118;52.388;9.452;2022-11-24T03:56:00;8.30;99.90
42489;DHT22;28118;52.388;9.452;2022-11-24T03:58:28;8.20;99.90
42489;DHT22;28118;52.388;9.452;2022-11-24T04:00:55;8.20;99.90
42489;DHT22;28118;52.388;9.452;2022-11-24T04:03:23;8.20;99.90
42489;DHT22;28118;52.388;9.452;2022-11-24T04:05:50;8.10;99.90
42489;DHT22;28118;52.388;9.452;2022-11-24T04:08:17;8.00;99.90
42489;DHT22;28118;52.388;9.452;2022-11-24T04:10:48;7.90;99.90
42489;DHT22;28118;52.388;9.452;2022-11-24T04:13:17;7.80;99.90
42489;DHT22;28118;52.388;9.452;2022-11-24T04:15:43;7.80;99.90
42489;DHT22;28118;52.388;9.452;2022-11-24T04:18:11;7.70;99.90
42489;DHT22;28118;52.388;9.452;2022-11-24T04:20:39;7.70;99.90
42489;DHT22;28118;52.388;9.452;2022-11-24T04:23:07;7.70;99.90
42489;DHT22;28118;52.388;9.452;2022-11-24T04:25:34;7.70;99.90
42489;DHT22;28118;52.388;9.452;2022-11-24T04:28:01;7.50;99.90
42489;DHT22;28118;52.388;9.452;2022-11-24T04:30:28;7.50;99.90
42489;DHT22;28118;52.388;9.452;2022-11-24T04:32:55;7.50;99.90
42489;DHT22;28118;52.388;9.452;2022-11-24T04:35:23;7.50;99.90
42489;DHT22;28118;52.388;9.452;2022-11-24T04:37:49;7.40;99.90
42489;DHT22;28118;52.388;9.452;2022-11-24T04:40:17;7.40;99.90
42489;DHT22;28118;52.388;9.452;2022-11-24T04:42:54;7.40;99.90
42489;DHT22;28118;52.388;9.452;2022-11-24T04:45:22;7.50;99.90
42489;DHT22;28118;52.388;9.452;2022-11-24T04:47:49;7.60;99.90
42489;DHT22;28118;52.388;9.452;2022-11-24T04:50:16;7.60;99.90
42489;DHT22;28118;52.388;9.452;2022-11-24T04:52:43;7.70;99.90
42489;DHT22;28118;52.388;9.452;2022-11-24T04:55:10;7.70;99.90
42489;DHT22;28118;52.388;9.452;2022-11-24T04:57:37;7.50;99.90
42489;DHT22;28118;52.388;9.452;2022-11-24T05:00:05;7.50;99.90
42489;DHT22;28118;52.388;9.452;2022-11-24T05:02:57;7.40;99.90
42489;DHT22;28118;52.388;9.452;2022-11-24T05:05:24;7.30;99.90
42489;DHT22;28118;52.388;9.452;2022-11-24T05:07:50;7.20;99.90
42489;DHT22;28118;52.388;9.452;2022-11-24T05:10:17;7.20;99.90
42489;DHT22;28118;52.388;9.452;2022-11-24T05:13:08;7.00;99.90
42489;DHT22;28118;52.388;9.452;2022-11-24T05:15:39;6.90;99.90
42489;DHT22;28118;52.388;9.452;2022-11-24T05:18:09;6.80;99.90
42489;DHT22;28118;52.388;9.452;2022-11-24T05:20:36;6.70;99.90
42489;DHT22;28118;52.388;9.452;2022-11-24T05:23:04;6.70;99.90
42489;DHT22;28118;52.388;9.452;2022-11-24T05:25:32;6.70;99.90
42489;DHT22;28118;52.388;9.452;2022-11-24T05:28:03;6.80;99.90
42489;DHT22;28118;52.388;9.452;2022-11-24T05:30:31;6.80;99.90
42489;DHT22;28118;52.388;9.452;2022-11-24T05:32:57;6.90;99.90
42489;DHT22;28118;52.388;9.452;2022-11-24T05:35:24;7.00;99.90
42489;DHT22;28118;52.388;9.452;2022-11-24T05:37:51;7.10;99.90
42489;DHT22;28118;52.388;9.452;2022-11-24T05:40:17;7.20;99.90
42489;DHT22;28118;52.388;9.452;2022-11-24T05:42:44;7.20;99.90
42489;DHT22;28118;52.388;9.452;2022-11-24T05:45:16;7.20;99.90
42489;DHT22;28118;52.388;9.452;2022-11-24T05:47:44;7.20;99.90
42489;DHT22;28118;52.388;9.452;2022-11-24T05:50:13;7.30;99.90
42489;DHT22;28118;52.388;9.452;2022-11-24T05:52:40;7.30;99.90
42489;DHT22;28118;52.388;9.452;2022-11-24T05:55:07;7.40;99.90
42489;DHT22;28118;52.388;9.452;2022-11-24T05:57:35;7.50;99.90
42489;DHT22;28118;52.388;9.452;2022-11-24T06:00:03;7.50;99.90
42489;DHT22;28118;52.388;9.452;2022-11-24T06:02:30;7.50;99.90
42489;DHT22;28118;52.388;9.452;2022-11-24T06:04:57;7.50;99.90
42489;DHT22;28118;52.388;9.452;2022-11-24T06:07:24;7.60;99.90
42489;DHT22;28118;52.388;9.452;2022-11-24T06:09:51;7.60;99.90
42489;DHT22;28118;52.388;9.452;2022-11-24T06:12:17;7.70;99.90
42489;DHT22;28118;52.388;9.452;2022-11-24T06:14:45;7.80;99.90
42489;DHT22;28118;52.388;9.452;2022-11-24T06:17:12;7.80;99.90
42489;DHT22;28118;52.388;9.452;2022-11-24T06:19:39;7.90;99.90
42489;DHT22;28118;52.388;9.452;2022-11-24T06:22:07;8.00;99.90
42489;DHT22;28118;52.388;9.452;2022-11-24T06:24:34;8.00;99.90
42489;DHT22;28118;52.388;9.452;2022-11-24T06:27:01;8.00;99.90
42489;DHT22;28118;52.388;9.452;2022-11-24T06:29:28;8.00;99.90
42489;DHT22;28118;52.388;9.452;2022-11-24T06:31:54;8.10;99.90
42489;DHT22;28118;52.388;9.452;2022-11-24T06:34:23;8.10;99.90
42489;DHT22;28118;52.388;9.452;2022-11-24T06:36:50;8.10;99.90
42489;DHT22;28118;52.388;9.452;2022-11-24T06:39:16;8.10;99.90
42489;DHT22;28118;52.388;9.452;2022-11-24T06:41:43;8.10;99.90
42489;DHT22;28118;52.388;9.452;2022-11-24T06:44:09;8.10;99.90
42489;DHT22;28118;52.388;9.452;2022-11-24T06:46:36;8.10;99.90
42489;DHT22;28118;52.388;9.452;2022-11-24T06:49:03;8.00;99.90
42489;DHT22;28118;52.388;9.452;2022-11-24T06:51:30;8.00;99.90
42489;DHT22;28118;52.388;9.452;2022-11-24T06:53:56;8.00;99.90
42489;DHT22;28118;52.388;9.452;2022-11-24T06:56:23;8.00;99.90
42489;DHT22;28118;52.388;9.452;2022-11-24T06:58:51;8.00;99.90
42489;DHT22;28118;52.388;9.452;2022-11-24T07:01:24;8.00;99.90
42489;DHT22;28118;52.388;9.452;2022-11-24T07:03:52;8.00;99.90
42489;DHT22;28118;52.388;9.452;2022-11-24T07:06:20;8.00;99.90
42489;DHT22;28118;52.388;9.452;2022-11-24T07:08:48;7.90;99.90
42489;DHT22;28118;52.388;9.452;2022-11-24T07:11:22;7.90;99.90
42489;DHT22;28118;52.388;9.452;2022-11-24T07:13:49;7.90;99.90
42489;DHT22;28118;52.388;9.452;2022-11-24T07:16:26;8.00;99.90
42489;DHT22;28118;52.388;9.452;2022-11-24T07:18:53;7.90;99.90
42489;DHT22;28118;52.388;9.452;2022-11-24T07:21:21;7.90;99.90
42489;DHT22;28118;52.388;9.452;2022-11-24T07:23:49;7.90;99.90
42489;DHT22;28118;52.388;9.452;2022-11-24T07:26:17;7.90;99.90
42489;DHT22;28118;52.388;9.452;2022-11-24T07:28:44;8.00;99.90
42489;DHT22;28118;52.388;9.452;2022-11-24T07:31:15;8.00;99.90
42489;DHT22;28118;52.388;9.452;2022-11-24T07:33:51;8.00;99.90
42489;DHT22;28118;52.388;9.452;2022-11-24T07:36:18;8.00;99.90
42489;DHT22;28118;52.388;9.452;2022-11-24T07:38:45;8.00;99.90
42489;DHT22;28118;52.388;9.452;2022-11-24T07:41:13;8.00;99.90
42489;DHT22;28118;52.388;9.452;2022-11-24T07:43:40;8.00;99.90
42489;DHT22;28118;52.388;9.452;2022-11-24T07:46:10;7.90;99.90
42489;DHT22;28118;52.388;9.452;2022-11-24T07:48:37;7.90;99.90
42489;DHT22;28118;52.388;9.452;2022-11-24T07:51:05;8.00;99.90
42489;DHT22;28118;52.388;9.452;2022-11-24T07:53:32;8.00;99.90
42489;DHT22;28118;52.388;9.452;2022-11-24T07:56:00;8.00;99.90
42489;DHT22;28118;52.388;9.452;2022-11-24T07:58:32;8.00;99.90
42489;DHT22;28118;52.388;9.452;2022-11-24T08:01:07;8.00;99.90
42489;DHT22;28118;52.388;9.452;2022-11-24T08:03:36;8.00;99.90
42489;DHT22;28118;52.388;9.452;2022-11-24T08:06:03;8.00;99.90
42489;DHT22;28118;52.388;9.452;2022-11-24T08:08:49;8.10;99.90
42489;DHT22;28118;52.388;9.452;2022-11-24T08:11:16;8.20;99.90
42489;DHT22;28118;52.388;9.452;2022-11-24T08:13:43;8.30;99.90
42489;DHT22;28118;52.388;9.452;2022-11-24T08:16:15;8.30;99.90
42489;DHT22;28118;52.388;9.452;2022-11-24T08:18:47;8.40;99.90
42489;DHT22;28118;52.388;9.452;2022-11-24T08:21:14;8.50;99.90
42489;DHT22;28118;52.388;9.452;2022-11-24T08:23:41;8.50;99.90
42489;DHT22;28118;52.388;9.452;2022-11-24T08:26:13;8.60;99.90
42489;DHT22;28118;52.388;9.452;2022-11-24T08:28:42;8.70;99.90
42489;DHT22;28118;52.388;9.452;2022-11-24T08:31:16;8.80;99.90
42489;DHT22;28118;52.388;9.452;2022-11-24T08:33:44;8.90;99.90
42489;DHT22;28118;52.388;9.452;2022-11-24T08:36:16;9.00;99.90
42489;DHT22;28118;52.388;9.452;2022-11-24T08:38:43;9.10;99.90
42489;DHT22;28118;52.388;9.452;2022-11-24T08:41:13;9.20;99.90
42489;DHT22;28118;52.388;9.452;2022-11-24T08:43:40;9.20;99.90
42489;DHT22;28118;52.388;9.452;2022-11-24T08:46:09;9.10;99.90
42489;DHT22;28118;52.388;9.452;2022-11-24T08:48:36;9.00;99.90
42489;DHT22;28118;52.388;9.452;2022-11-24T08:51:09;8.90;99.90
42489;DHT22;28118;52.388;9.452;2022-11-24T08:53:36;8.80;99.90
42489;DHT22;28118;52.388;9.452;2022-11-24T08:56:04;8.70;99.90
42489;DHT22;28118;52.388;9.452;2022-11-24T08:58:31;8.80;99.90
42489;DHT22;28118;52.388;9.452;2022-11-24T09:01:10;8.70;99.90
42489;DHT22;28118;52.388;9.452;2022-11-24T09:03:37;8.80;99.90
42489;DHT22;28118;52.388;9.452;2022-11-24T09:06:10;8.80;99.90
42489;DHT22;28118;52.388;9.452;2022-11-24T09:08:37;8.80;99.90
42489;DHT22;28118;52.388;9.452;2022-11-24T09:11:06;8.90;99.90
42489;DHT22;28118;52.388;9.452;2022-11-24T09:13:34;8.90;99.90
42489;DHT22;28118;52.388;9.452;2022-11-24T09:16:04;8.90;99.90
42489;DHT22;28118;52.388;9.452;2022-11-24T09:18:31;8.90;99.90
42489;DHT22;28118;52.388;9.452;2022-11-24T09:21:26;8.90;99.90
42489;DHT22;28118;52.388;9.452;2022-11-24T09:23:54;9.00;99.90
42489;DHT22;28118;52.388;9.452;2022-11-24T09:28:49;9.00;99.90
42489;DHT22;28118;52.388;9.452;2022-11-24T09:31:21;9.00;99.90
42489;DHT22;28118;52.388;9.452;2022-11-24T09:33:48;9.00;99.90
42489;DHT22;28118;52.388;9.452;2022-11-24T09:36:15;8.90;99.90
42489;DHT22;28118;52.388;9.452;2022-11-24T09:38:42;8.90;99.90
42489;DHT22;28118;52.388;9.452;2022-11-24T09:49:37;8.80;99.90
42489;DHT22;28118;52.388;9.452;2022-11-24T09:52:09;8.80;99.90
42489;DHT22;28118;52.388;9.452;2022-11-24T09:54:54;8.80;99.90
42489;DHT22;28118;52.388;9.452;2022-11-24T09:57:25;8.70;99.90
42489;DHT22;28118;52.388;9.452;2022-11-24T10:00:10;8.80;99.90
42489;DHT22;28118;52.388;9.452;2022-11-24T10:02:37;8.90;99.90
42489;DHT22;28118;52.388;9.452;2022-11-24T10:05:05;9.00;99.90
42489;DHT22;28118;52.388;9.452;2022-11-24T10:07:40;9.00;99.90
42489;DHT22;28118;52.388;9.452;2022-11-24T10:10:24;9.10;99.90
42489;DHT22;28118;52.388;9.452;2022-11-24T10:13:14;9.10;99.90
42489;DHT22;28118;52.388;9.452;2022-11-24T10:16:49;9.30;99.90
42489;DHT22;28118;52.388;9.452;2022-11-24T10:19:28;9.50;99.90
42489;DHT22;28118;52.388;9.452;2022-11-24T10:27:47;10.70;99.90
42489;DHT22;28118;52.388;9.452;2022-11-24T10:30:19;11.00;99.90
42489;DHT22;28118;52.388;9.452;2022-11-24T10:32:59;11.10;99.90
42489;DHT22;28118;52.388;9.452;2022-11-24T10:39:02;11.30;99.90
42489;DHT22;28118;52.388;9.452;2022-11-24T10:41:19;11.40;99.90
42489;DHT22;28118;52.388;9.452;2022-11-24T10:43:46;11.40;99.90
42489;DHT22;28118;52.388;9.452;2022-11-24T10:46:23;11.30;99.90
42489;DHT22;28118;52.388;9.452;2022-11-24T10:48:56;11.10;99.90
42489;DHT22;28118;52.388;9.452;2022-11-24T10:51:40;11.00;99.90
42489;DHT22;28118;52.388;9.452;2022-11-24T10:56:43;10.80;99.90
42489;DHT22;28118;52.388;9.452;2022-11-24T10:59:30;10.70;99.90
42489;DHT22;28118;52.388;9.452;2022-11-24T11:01:58;10.70;99.90
42489;DHT22;28118;52.388;9.452;2022-11-24T11:04:31;10.80;99.90
42489;DHT22;28118;52.388;9.452;2022-11-24T11:07:16;10.70;99.90
42489;DHT22;28118;52.388;9.452;2022-11-24T11:09:47;10.80;99.90
42489;DHT22;28118;52.388;9.452;2022-11-24T11:12:21;10.90;99.90
42489;DHT22;28118;52.388;9.452;2022-11-24T11:15:22;10.90;99.90
42489;DHT22;28118;52.388;9.452;2022-11-24T11:17:50;10.80;99.90
42489;DHT22;28118;52.388;9.452;2022-11-24T11:20:33;10.80;99.90
42489;DHT22;28118;52.388;9.452;2022-11-24T11:23:04;10.90;99.90
42489;DHT22;28118;52.388;9.452;2022-11-24T11:25:39;10.80;99.90
42489;DHT22;28118;52.388;9.452;2022-11-24T11:31:02;10.60;99.90
42489;DHT22;28118;52.388;9.452;2022-11-24T11:33:54;10.60;99.90
42489;DHT22;28118;52.388;9.452;2022-11-24T11:39:02;10.70;99.90
42489;DHT22;28118;52.388;9.452;2022-11-24T11:41:33;10.60;99.90
42489;DHT22;28118;52.388;9.452;2022-11-24T11:46:43;10.90;99.90
42489;DHT22;28118;52.388;9.452;2022-11-24T11:49:11;11.10;99.90
42489;DHT22;28118;52.388;9.452;2022-11-24T11:52:01;11.10;99.90
42489;DHT22;28118;52.388;9.452;2022-11-24T11:57:33;11.00;99.90
42489;DHT22;28118;52.388;9.452;2022-11-24T12:16:30;10.60;99.90
42489;DHT22;28118;52.388;9.452;2022-11-24T12:19:14;10.60;99.90
42489;DHT22;28118;52.388;9.452;2022-11-24T12:24:49;10.70;99.90
42489;DHT22;28118;52.388;9.452;2022-11-24T12:30:04;10.40;99.90
42489;DHT22;28118;52.388;9.452;2022-11-24T12:43:58;10.20;99.90
42489;DHT22;28118;52.388;9.452;2022-11-24T12:46:58;10.30;99.90
42489;DHT22;28118;52.388;9.452;2022-11-24T12:49:38;10.10;99.90
42489;DHT22;28118;52.388;9.452;2022-11-24T12:52:25;10.10;99.90
42489;DHT22;28118;52.388;9.452;2022-11-24T12:54:52;10.10;99.90
42489;DHT22;28118;52.388;9.452;2022-11-24T12:57:38;10.10;99.90
42489;DHT22;28118;52.388;9.452;2022-11-24T13:00:22;10.10;99.90
42489;DHT22;28118;52.388;9.452;2022-11-24T13:03:16;10.10;99.90
42489;DHT22;28118;52.388;9.452;2022-11-24T13:08:16;10.10;99.90
42489;DHT22;28118;52.388;9.452;2022-11-24T13:10:43;10.00;99.90
42489;DHT22;28118;52.388;9.452;2022-11-24T13:13:26;10.00;99.90
42489;DHT22;28118;52.388;9.452;2022-11-24T13:18:59;9.90;99.90
42489;DHT22;28118;52.388;9.452;2022-11-24T13:29:37;9.90;99.90
42489;DHT22;28118;52.388;9.452;2022-11-24T13:40:47;9.80;99.90
42489;DHT22;28118;52.388;9.452;2022-11-24T13:56:19;9.70;99.90
42489;DHT22;28118;52.388;9.452;2022-11-24T13:58:50;9.60;99.90
42489;DHT22;28118;52.388;9.452;2022-11-24T14:01:30;9.60;99.90
42489;DHT22;28118;52.388;9.452;2022-11-24T14:04:17;9.50;99.90
42489;DHT22;28118;52.388;9.452;2022-11-24T14:07:05;9.50;99.90
42489;DHT22;28118;52.388;9.452;2022-11-24T14:09:43;9.50;99.90
42489;DHT22;28118;52.388;9.452;2022-11-24T14:12:19;9.50;99.90
42489;DHT22;28118;52.388;9.452;2022-11-24T14:14:48;9.60;99.90
42489;DHT22;28118;52.388;9.452;2022-11-24T14:17:22;9.50;99.90
42489;DHT22;28118;52.388;9.452;2022-11-24T14:19:54;9.50;99.90
42489;DHT22;28118;52.388;9.452;2022-11-24T14:22:30;9.40;99.90
42489;DHT22;28118;52.388;9.452;2022-11-24T14:24:59;9.40;99.90
42489;DHT22;28118;52.388;9.452;2022-11-24T14:27:35;9.50;99.90
42489;DHT22;28118;52.388;9.452;2022-11-24T14:32:39;9.40;99.90
42489;DHT22;28118;52.388;9.452;2022-11-24T14:35:29;9.40;99.90
42489;DHT22;28118;52.388;9.452;2022-11-24T14:37:58;9.30;99.90
42489;DHT22;28118;52.388;9.452;2022-11-24T14:43:22;9.10;99.90
42489;DHT22;28118;52.388;9.452;2022-11-24T14:45:59;9.00;99.90
42489;DHT22;28118;52.388;9.452;2022-11-24T14:48:30;8.90;99.90
42489;DHT22;28118;52.388;9.452;2022-11-24T14:51:28;8.90;99.90
42489;DHT22;28118;52.388;9.452;2022-11-24T14:54:00;8.90;99.90
42489;DHT22;28118;52.388;9.452;2022-11-24T14:56:39;8.90;99.90
42489;DHT22;28118;52.388;9.452;2022-11-24T14:59:23;8.90;99.90
42489;DHT22;28118;52.388;9.452;2022-11-24T15:01:50;8.90;99.90
42489;DHT22;28118;52.388;9.452;2022-11-24T15:04:28;8.90;99.90
42489;DHT22;28118;52.388;9.452;2022-11-24T15:07:25;8.80;99.90
42489;DHT22;28118;52.388;9.452;2022-11-24T15:09:57;8.80;99.90
42489;DHT22;28118;52.388;9.452;2022-11-24T15:12:38;8.90;99.90
42489;DHT22;28118;52.388;9.452;2022-11-24T15:22:49;8.70;99.90
42489;DHT22;28118;52.388;9.452;2022-11-24T15:25:31;8.60;99.90
42489;DHT22;28118;52.388;9.452;2022-11-24T15:27:59;8.50;99.90
42489;DHT22;28118;52.388;9.452;2022-11-24T15:30:26;8.40;99.90
42489;DHT22;28118;52.388;9.452;2022-11-24T15:32:57;8.40;99.90
42489;DHT22;28118;52.388;9.452;2022-11-24T15:35:28;8.40;99.90
42489;DHT22;28118;52.388;9.452;2022-11-24T15:37:55;8.40;99.90
42489;DHT22;28118;52.388;9.452;2022-11-24T15:40:22;8.30;99.90
42489;DHT22;28118;52.388;9.452;2022-11-24T15:42:55;8.40;99.90
42489;DHT22;28118;52.388;9.452;2022-11-24T15:45:25;8.40;99.90
42489;DHT22;28118;52.388;9.452;2022-11-24T15:47:52;8.50;99.90
42489;DHT22;28118;52.388;9.452;2022-11-24T15:50:18;8.50;99.90
42489;DHT22;28118;52.388;9.452;2022-11-24T15:52:46;8.50;99.90
42489;DHT22;28118;52.388;9.452;2022-11-24T15:55:39;8.50;99.90
42489;DHT22;28118;52.388;9.452;2022-11-24T15:58:10;8.50;99.90
42489;DHT22;28118;52.388;9.452;2022-11-24T16:00:37;8.50;99.90
42489;DHT22;28118;52.388;9.452;2022-11-24T16:03:04;8.50;99.90
42489;DHT22;28118;52.388;9.452;2022-11-24T16:05:53;8.30;99.90
42489;DHT22;28118;52.388;9.452;2022-11-24T16:08:20;8.30;99.90
42489;DHT22;28118;52.388;9.452;2022-11-24T16:10:47;8.20;99.90
42489;DHT22;28118;52.388;9.452;2022-11-24T16:13:14;8.00;99.90
42489;DHT22;28118;52.388;9.452;2022-11-24T16:15:40;7.90;99.90
42489;DHT22;28118;52.388;9.452;2022-11-24T16:18:07;7.90;99.90
42489;DHT22;28118;52.388;9.452;2022-11-24T16:20:34;7.90;99.90
42489;DHT22;28118;52.388;9.452;2022-11-24T16:23:02;8.00;99.90
42489;DHT22;28118;52.388;9.452;2022-11-24T16:25:29;7.90;99.90
42489;DHT22;28118;52.388;9.452;2022-11-24T16:27:56;7.90;99.90
42489;DHT22;28118;52.388;9.452;2022-11-24T16:30:23;7.90;99.90
42489;DHT22;28118;52.388;9.452;2022-11-24T16:32:50;7.80;99.90
42489;DHT22;28118;52.388;9.452;2022-11-24T16:35:16;7.70;99.90
42489;DHT22;28118;52.388;9.452;2022-11-24T16:37:44;7.70;99.90
42489;DHT22;28118;52.388;9.452;2022-11-24T16:40:11;7.60;99.90
42489;DHT22;28118;52.388;9.452;2022-11-24T16:42:37;7.70;99.90
42489;DHT22;28118;52.388;9.452;2022-11-24T16:45:04;7.70;99.90
42489;DHT22;28118;52.388;9.452;2022-11-24T16:47:31;7.70;99.90
42489;DHT22;28118;52.388;9.452;2022-11-24T16:49:57;7.80;99.90
42489;DHT22;28118;52.388;9.452;2022-11-24T16:52:24;7.90;99.90
42489;DHT22;28118;52.388;9.452;2022-11-24T16:54:51;7.90;99.90
42489;DHT22;28118;52.388;9.452;2022-11-24T16:57:17;8.00;99.90
42489;DHT22;28118;52.388;9.452;2022-11-24T16:59:44;7.90;99.90
42489;DHT22;28118;52.388;9.452;2022-11-24T17:02:14;7.90;99.90
42489;DHT22;28118;52.388;9.452;2022-11-24T17:05:05;8.00;99.90
42489;DHT22;28118;52.388;9.452;2022-11-24T17:07:32;8.00;99.90
42489;DHT22;28118;52.388;9.452;2022-11-24T17:10:00;8.00;99.90
42489;DHT22;28118;52.388;9.452;2022-11-24T17:12:28;8.00;99.90
42489;DHT22;28118;52.388;9.452;2022-11-24T17:14:55;8.10;99.90
42489;DHT22;28118;52.388;9.452;2022-11-24T17:17:42;8.10;99.90
42489;DHT22;28118;52.388;9.452;2022-11-24T17:20:34;8.10;99.90
42489;DHT22;28118;52.388;9.452;2022-11-24T17:23:01;8.10;99.90
42489;DHT22;28118;52.388;9.452;2022-11-24T17:25:31;8.20;99.90
42489;DHT22;28118;52.388;9.452;2022-11-24T17:27:57;8.20;99.90
42489;DHT22;28118;52.388;9.452;2022-11-24T17:30:25;8.20;99.90
42489;DHT22;28118;52.388;9.452;2022-11-24T17:32:52;8.20;99.90
42489;DHT22;28118;52.388;9.452;2022-11-24T17:35:22;8.30;99.90
42489;DHT22;28118;52.388;9.452;2022-11-24T17:37:49;8.20;99.90
42489;DHT22;28118;52.388;9.452;2022-11-24T17:40:15;8.20;99.90
42489;DHT22;28118;52.388;9.452;2022-11-24T17:43:00;8.20;99.90
42489;DHT22;28118;52.388;9.452;2022-11-24T17:45:28;8.30;99.90
42489;DHT22;28118;52.388;9.452;2022-11-24T17:47:57;8.20;99.90
42489;DHT22;28118;52.388;9.452;2022-11-24T17:50:24;8.10;99.90
42489;DHT22;28118;52.388;9.452;2022-11-24T17:52:52;8.10;99.90
42489;DHT22;28118;52.388;9.452;2022-11-24T17:55:19;8.00;99.90
42489;DHT22;28118;52.388;9.452;2022-11-24T17:57:46;7.90;99.90
42489;DHT22;28118;52.388;9.452;2022-11-24T18:00:13;7.90;99.90
42489;DHT22;28118;52.388;9.452;2022-11-24T18:02:40;7.80;99.90
42489;DHT22;28118;52.388;9.452;2022-11-24T18:05:07;7.60;99.90
42489;DHT22;28118;52.388;9.452;2022-11-24T18:07:34;7.60;99.90
42489;DHT22;28118;52.388;9.452;2022-11-24T18:10:02;7.40;99.90
42489;DHT22;28118;52.388;9.452;2022-11-24T18:12:29;7.30;99.90